LDZD/ZAD METAR and TAF weather

Enter ICAO airport designator
Station Type Date Time Source
LDZD METAR 2019/12/16 06:00 UTC NOAA

LDZD 160600Z 10004KT 080V140 CAVOK 07/06 Q1022 NOSIG


Station Type Date Time Source
LDZD Decoded METAR 2019/12/16 06:00 UTC NOAA

Zadar / Zemunik, Croatia (LDZD) 44-06N 015-21E
Dec 16, 2019 - 01:00 AM EST / 2019.12.16 0600 UTC
Wind: from the E (100 degrees) at 5 MPH (4 KT) (direction variable):0
Visibility: greater than 7 mile(s):0
Temperature: 44 F (7 C)
Dew Point: 42 F (6 C)
Relative Humidity: 93%
Pressure (altimeter): 30.18 in. Hg (1022 hPa)
ob: LDZD 160600Z 10004KT 080V140 CAVOK 07/06 Q1022 NOSIG
cycle: 6

Station Type Date Time Source
LDZD TAF 2019/12/16 06:28 UTC NOAA

TAF LDZD 160525Z 1606/1706 11007KT 9999 SCT027 TX17/1612Z TN07/1606Z
BECMG 1608/1610 13014KT
BECMG 1614/1616 12008KT PROB30 1621/1706 11012KT

Example: see airport list